<?xml version="1.0" encoding="UTF-8" standalone="no" ?>
<gpx xmlns="http://www.topografix.com/GPX/1/1" xmlns:xsi="http://www.w3.org/2001/XMLSchema-instance" xsi:schemaLocation="http://www.topografix.com/GPX/1/1 http://www.topografix.com/GPX/1/1/gpx.xsd" version="1.1" creator="VisuGPX - https://www.visugpx.com">
  <metadata>
    <name>13063821-bcs1-Etangs minière</name>
  </metadata>
  <trk>
    <name><![CDATA[13063821-bcs1-Etangs minière]]></name>
    <trkseg>
      <trkpt lat="48.76738" lon="2.11475">
        <ele>161</ele>
        <time>2021-05-15T17:02:51Z</time>
      </trkpt>
      <trkpt lat="48.76868" lon="2.11545">
        <ele>158</ele>
        <time>2021-05-15T17:05:55Z</time>
      </trkpt>
      <trkpt lat="48.76795" lon="2.11887">
        <ele>158</ele>
        <time>2021-05-15T17:11:11Z</time>
      </trkpt>
      <trkpt lat="48.77166" lon="2.12174">
        <ele>151</ele>
        <time>2021-05-15T17:20:27Z</time>
      </trkpt>
      <trkpt lat="48.77166" lon="2.12174">
        <ele>151</ele>
        <time>2021-05-15T17:20:27Z</time>
      </trkpt>
      <trkpt lat="48.77176" lon="2.12188">
        <ele>151</ele>
        <time>2021-05-15T17:20:45Z</time>
      </trkpt>
      <trkpt lat="48.77191" lon="2.12174">
        <ele>151</ele>
        <time>2021-05-15T17:21:09Z</time>
      </trkpt>
      <trkpt lat="48.77289" lon="2.11827">
        <ele>156</ele>
        <time>2021-05-15T17:26:41Z</time>
      </trkpt>
      <trkpt lat="48.77497" lon="2.11904">
        <ele>127</ele>
        <time>2021-05-15T17:31:26Z</time>
      </trkpt>
      <trkpt lat="48.77504" lon="2.11858">
        <ele>131</ele>
        <time>2021-05-15T17:32:08Z</time>
      </trkpt>
      <trkpt lat="48.77532" lon="2.11824">
        <ele>130</ele>
        <time>2021-05-15T17:32:56Z</time>
      </trkpt>
      <trkpt lat="48.77591" lon="2.11809">
        <ele>120</ele>
        <time>2021-05-15T17:34:16Z</time>
      </trkpt>
      <trkpt lat="48.77623" lon="2.1176">
        <ele>115</ele>
        <time>2021-05-15T17:35:16Z</time>
      </trkpt>
      <trkpt lat="48.7763" lon="2.11771">
        <ele>115</ele>
        <time>2021-05-15T17:35:30Z</time>
      </trkpt>
      <trkpt lat="48.77677" lon="2.11774">
        <ele>111</ele>
        <time>2021-05-15T17:36:32Z</time>
      </trkpt>
      <trkpt lat="48.77708" lon="2.11764">
        <ele>113</ele>
        <time>2021-05-15T17:37:15Z</time>
      </trkpt>
      <trkpt lat="48.77746" lon="2.11761">
        <ele>117</ele>
        <time>2021-05-15T17:38:06Z</time>
      </trkpt>
      <trkpt lat="48.77734" lon="2.11652">
        <ele>117</ele>
        <time>2021-05-15T17:39:43Z</time>
      </trkpt>
      <trkpt lat="48.77706" lon="2.11566">
        <ele>121</ele>
        <time>2021-05-15T17:41:07Z</time>
      </trkpt>
      <trkpt lat="48.77689" lon="2.11502">
        <ele>121</ele>
        <time>2021-05-15T17:42:08Z</time>
      </trkpt>
      <trkpt lat="48.77689" lon="2.11461">
        <ele>120</ele>
        <time>2021-05-15T17:42:44Z</time>
      </trkpt>
      <trkpt lat="48.77705" lon="2.114">
        <ele>119</ele>
        <time>2021-05-15T17:43:42Z</time>
      </trkpt>
      <trkpt lat="48.77703" lon="2.11333">
        <ele>118</ele>
        <time>2021-05-15T17:44:41Z</time>
      </trkpt>
      <trkpt lat="48.77712" lon="2.11283">
        <ele>119</ele>
        <time>2021-05-15T17:45:26Z</time>
      </trkpt>
      <trkpt lat="48.77712" lon="2.11262">
        <ele>120</ele>
        <time>2021-05-15T17:45:45Z</time>
      </trkpt>
      <trkpt lat="48.77707" lon="2.11198">
        <ele>120</ele>
        <time>2021-05-15T17:46:41Z</time>
      </trkpt>
      <trkpt lat="48.77696" lon="2.11131">
        <ele>120</ele>
        <time>2021-05-15T17:47:42Z</time>
      </trkpt>
      <trkpt lat="48.77689" lon="2.11099">
        <ele>121</ele>
        <time>2021-05-15T17:48:12Z</time>
      </trkpt>
      <trkpt lat="48.77649" lon="2.10988">
        <ele>122</ele>
        <time>2021-05-15T17:50:03Z</time>
      </trkpt>
      <trkpt lat="48.77579" lon="2.10817">
        <ele>120</ele>
        <time>2021-05-15T17:53:00Z</time>
      </trkpt>
      <trkpt lat="48.77543" lon="2.10709">
        <ele>119</ele>
        <time>2021-05-15T17:54:46Z</time>
      </trkpt>
      <trkpt lat="48.7754" lon="2.10686">
        <ele>119</ele>
        <time>2021-05-15T17:55:07Z</time>
      </trkpt>
      <trkpt lat="48.77544" lon="2.10663">
        <ele>120</ele>
        <time>2021-05-15T17:55:28Z</time>
      </trkpt>
      <trkpt lat="48.77549" lon="2.1065">
        <ele>120</ele>
        <time>2021-05-15T17:55:41Z</time>
      </trkpt>
      <trkpt lat="48.7757" lon="2.10604">
        <ele>122</ele>
        <time>2021-05-15T17:56:30Z</time>
      </trkpt>
      <trkpt lat="48.77602" lon="2.10527">
        <ele>125</ele>
        <time>2021-05-15T17:57:50Z</time>
      </trkpt>
      <trkpt lat="48.77617" lon="2.10455">
        <ele>127</ele>
        <time>2021-05-15T17:58:57Z</time>
      </trkpt>
      <trkpt lat="48.77627" lon="2.10339">
        <ele>126</ele>
        <time>2021-05-15T18:00:40Z</time>
      </trkpt>
      <trkpt lat="48.77626" lon="2.10295">
        <ele>125</ele>
        <time>2021-05-15T18:01:18Z</time>
      </trkpt>
      <trkpt lat="48.77616" lon="2.10206">
        <ele>123</ele>
        <time>2021-05-15T18:02:38Z</time>
      </trkpt>
      <trkpt lat="48.77616" lon="2.10184">
        <ele>123</ele>
        <time>2021-05-15T18:02:57Z</time>
      </trkpt>
      <trkpt lat="48.77629" lon="2.10056">
        <ele>121</ele>
        <time>2021-05-15T18:04:51Z</time>
      </trkpt>
      <trkpt lat="48.77653" lon="2.10029">
        <ele>120</ele>
        <time>2021-05-15T18:05:31Z</time>
      </trkpt>
      <trkpt lat="48.77662" lon="2.10024">
        <ele>120</ele>
        <time>2021-05-15T18:05:44Z</time>
      </trkpt>
      <trkpt lat="48.77702" lon="2.10019">
        <ele>121</ele>
        <time>2021-05-15T18:06:37Z</time>
      </trkpt>
      <trkpt lat="48.77741" lon="2.1002">
        <ele>122</ele>
        <time>2021-05-15T18:07:29Z</time>
      </trkpt>
      <trkpt lat="48.7778" lon="2.10027">
        <ele>129</ele>
        <time>2021-05-15T18:08:22Z</time>
      </trkpt>
      <trkpt lat="48.77804" lon="2.10004">
        <ele>129</ele>
        <time>2021-05-15T18:09:00Z</time>
      </trkpt>
      <trkpt lat="48.7781" lon="2.0999">
        <ele>129</ele>
        <time>2021-05-15T18:09:14Z</time>
      </trkpt>
      <trkpt lat="48.77815" lon="2.09954">
        <ele>126</ele>
        <time>2021-05-15T18:09:47Z</time>
      </trkpt>
      <trkpt lat="48.77834" lon="2.09902">
        <ele>124</ele>
        <time>2021-05-15T18:10:39Z</time>
      </trkpt>
      <trkpt lat="48.77845" lon="2.09885">
        <ele>123</ele>
        <time>2021-05-15T18:11:00Z</time>
      </trkpt>
      <trkpt lat="48.77855" lon="2.09876">
        <ele>123</ele>
        <time>2021-05-15T18:11:15Z</time>
      </trkpt>
      <trkpt lat="48.77879" lon="2.09872">
        <ele>123</ele>
        <time>2021-05-15T18:11:48Z</time>
      </trkpt>
      <trkpt lat="48.7794" lon="2.09905">
        <ele>131</ele>
        <time>2021-05-15T18:13:14Z</time>
      </trkpt>
      <trkpt lat="48.77961" lon="2.09916">
        <ele>133</ele>
        <time>2021-05-15T18:13:44Z</time>
      </trkpt>
      <trkpt lat="48.77996" lon="2.0991">
        <ele>133</ele>
        <time>2021-05-15T18:14:31Z</time>
      </trkpt>
      <trkpt lat="48.78008" lon="2.09905">
        <ele>133</ele>
        <time>2021-05-15T18:14:47Z</time>
      </trkpt>
      <trkpt lat="48.78031" lon="2.09888">
        <ele>134</ele>
        <time>2021-05-15T18:15:21Z</time>
      </trkpt>
      <trkpt lat="48.78053" lon="2.09853">
        <ele>133</ele>
        <time>2021-05-15T18:16:04Z</time>
      </trkpt>
      <trkpt lat="48.78062" lon="2.09815">
        <ele>131</ele>
        <time>2021-05-15T18:16:39Z</time>
      </trkpt>
      <trkpt lat="48.78063" lon="2.09768">
        <ele>130</ele>
        <time>2021-05-15T18:17:21Z</time>
      </trkpt>
      <trkpt lat="48.78061" lon="2.09735">
        <ele>129</ele>
        <time>2021-05-15T18:17:50Z</time>
      </trkpt>
      <trkpt lat="48.78058" lon="2.09713">
        <ele>129</ele>
        <time>2021-05-15T18:18:10Z</time>
      </trkpt>
      <trkpt lat="48.78039" lon="2.09655">
        <ele>127</ele>
        <time>2021-05-15T18:19:07Z</time>
      </trkpt>
      <trkpt lat="48.78036" lon="2.09635">
        <ele>128</ele>
        <time>2021-05-15T18:19:25Z</time>
      </trkpt>
      <trkpt lat="48.78032" lon="2.09565">
        <ele>131</ele>
        <time>2021-05-15T18:20:26Z</time>
      </trkpt>
      <trkpt lat="48.78046" lon="2.09552">
        <ele>134</ele>
        <time>2021-05-15T18:20:48Z</time>
      </trkpt>
      <trkpt lat="48.78048" lon="2.09529">
        <ele>134</ele>
        <time>2021-05-15T18:21:09Z</time>
      </trkpt>
      <trkpt lat="48.78039" lon="2.09371">
        <ele>134</ele>
        <time>2021-05-15T18:23:28Z</time>
      </trkpt>
      <trkpt lat="48.78046" lon="2.09267">
        <ele>133</ele>
        <time>2021-05-15T18:25:00Z</time>
      </trkpt>
      <trkpt lat="48.78051" lon="2.09231">
        <ele>133</ele>
        <time>2021-05-15T18:25:33Z</time>
      </trkpt>
      <trkpt lat="48.78068" lon="2.09177">
        <ele>134</ele>
        <time>2021-05-15T18:26:25Z</time>
      </trkpt>
      <trkpt lat="48.78113" lon="2.09115">
        <ele>137</ele>
        <time>2021-05-15T18:27:46Z</time>
      </trkpt>
      <trkpt lat="48.78145" lon="2.09093">
        <ele>138</ele>
        <time>2021-05-15T18:28:33Z</time>
      </trkpt>
      <trkpt lat="48.78195" lon="2.09045">
        <ele>141</ele>
        <time>2021-05-15T18:29:52Z</time>
      </trkpt>
      <trkpt lat="48.78211" lon="2.09017">
        <ele>141</ele>
        <time>2021-05-15T18:30:25Z</time>
      </trkpt>
      <trkpt lat="48.78225" lon="2.08964">
        <ele>140</ele>
        <time>2021-05-15T18:31:15Z</time>
      </trkpt>
      <trkpt lat="48.78227" lon="2.08915">
        <ele>137</ele>
        <time>2021-05-15T18:31:58Z</time>
      </trkpt>
      <trkpt lat="48.78236" lon="2.08839">
        <ele>138</ele>
        <time>2021-05-15T18:33:06Z</time>
      </trkpt>
      <trkpt lat="48.78236" lon="2.0884">
        <ele>138</ele>
        <time>2021-05-15T18:33:07Z</time>
      </trkpt>
      <trkpt lat="48.78236" lon="2.08781">
        <ele>136</ele>
        <time>2021-05-15T18:33:59Z</time>
      </trkpt>
      <trkpt lat="48.78236" lon="2.08781">
        <ele>136</ele>
        <time>2021-05-15T18:33:59Z</time>
      </trkpt>
      <trkpt lat="48.7824" lon="2.0874">
        <ele>135</ele>
        <time>2021-05-15T18:34:35Z</time>
      </trkpt>
      <trkpt lat="48.78256" lon="2.08696">
        <ele>137</ele>
        <time>2021-05-15T18:35:19Z</time>
      </trkpt>
      <trkpt lat="48.78258" lon="2.08679">
        <ele>136</ele>
        <time>2021-05-15T18:35:35Z</time>
      </trkpt>
      <trkpt lat="48.78255" lon="2.08652">
        <ele>134</ele>
        <time>2021-05-15T18:35:59Z</time>
      </trkpt>
      <trkpt lat="48.78255" lon="2.08652">
        <ele>134</ele>
        <time>2021-05-15T18:35:59Z</time>
      </trkpt>
      <trkpt lat="48.78256" lon="2.08652">
        <ele>135</ele>
        <time>2021-05-15T18:36:00Z</time>
      </trkpt>
      <trkpt lat="48.78258" lon="2.08624">
        <ele>134</ele>
        <time>2021-05-15T18:36:25Z</time>
      </trkpt>
      <trkpt lat="48.7827" lon="2.08606">
        <ele>135</ele>
        <time>2021-05-15T18:36:47Z</time>
      </trkpt>
      <trkpt lat="48.78301" lon="2.08586">
        <ele>138</ele>
        <time>2021-05-15T18:37:32Z</time>
      </trkpt>
      <trkpt lat="48.78302" lon="2.08585">
        <ele>138</ele>
        <time>2021-05-15T18:37:34Z</time>
      </trkpt>
      <trkpt lat="48.78322" lon="2.08566">
        <ele>139</ele>
        <time>2021-05-15T18:38:05Z</time>
      </trkpt>
      <trkpt lat="48.78351" lon="2.08504">
        <ele>138</ele>
        <time>2021-05-15T18:39:12Z</time>
      </trkpt>
      <trkpt lat="48.78392" lon="2.0842">
        <ele>139</ele>
        <time>2021-05-15T18:40:44Z</time>
      </trkpt>
      <trkpt lat="48.78405" lon="2.08389">
        <ele>140</ele>
        <time>2021-05-15T18:41:16Z</time>
      </trkpt>
      <trkpt lat="48.78419" lon="2.08363">
        <ele>139</ele>
        <time>2021-05-15T18:41:46Z</time>
      </trkpt>
      <trkpt lat="48.78432" lon="2.08354">
        <ele>140</ele>
        <time>2021-05-15T18:42:05Z</time>
      </trkpt>
      <trkpt lat="48.7852" lon="2.08322">
        <ele>141</ele>
        <time>2021-05-15T18:44:06Z</time>
      </trkpt>
      <trkpt lat="48.78558" lon="2.08297">
        <ele>142</ele>
        <time>2021-05-15T18:45:01Z</time>
      </trkpt>
      <trkpt lat="48.78594" lon="2.08283">
        <ele>144</ele>
        <time>2021-05-15T18:45:51Z</time>
      </trkpt>
      <trkpt lat="48.78623" lon="2.08279">
        <ele>146</ele>
        <time>2021-05-15T18:46:29Z</time>
      </trkpt>
      <trkpt lat="48.78658" lon="2.08243">
        <ele>144</ele>
        <time>2021-05-15T18:47:26Z</time>
      </trkpt>
      <trkpt lat="48.78677" lon="2.08228">
        <ele>145</ele>
        <time>2021-05-15T18:47:54Z</time>
      </trkpt>
      <trkpt lat="48.78699" lon="2.08213">
        <ele>145</ele>
        <time>2021-05-15T18:48:27Z</time>
      </trkpt>
      <trkpt lat="48.78715" lon="2.0821">
        <ele>145</ele>
        <time>2021-05-15T18:48:48Z</time>
      </trkpt>
      <trkpt lat="48.78748" lon="2.08216">
        <ele>147</ele>
        <time>2021-05-15T18:49:32Z</time>
      </trkpt>
      <trkpt lat="48.78774" lon="2.08231">
        <ele>150</ele>
        <time>2021-05-15T18:50:10Z</time>
      </trkpt>
      <trkpt lat="48.7879" lon="2.0823">
        <ele>151</ele>
        <time>2021-05-15T18:50:31Z</time>
      </trkpt>
      <trkpt lat="48.78799" lon="2.08218">
        <ele>150</ele>
        <time>2021-05-15T18:50:47Z</time>
      </trkpt>
      <trkpt lat="48.78803" lon="2.08201">
        <ele>148</ele>
        <time>2021-05-15T18:51:03Z</time>
      </trkpt>
      <trkpt lat="48.78801" lon="2.08188">
        <ele>147</ele>
        <time>2021-05-15T18:51:15Z</time>
      </trkpt>
      <trkpt lat="48.78794" lon="2.08175">
        <ele>145</ele>
        <time>2021-05-15T18:51:29Z</time>
      </trkpt>
      <trkpt lat="48.7878" lon="2.08158">
        <ele>143</ele>
        <time>2021-05-15T18:51:53Z</time>
      </trkpt>
      <trkpt lat="48.78765" lon="2.08145">
        <ele>142</ele>
        <time>2021-05-15T18:52:16Z</time>
      </trkpt>
      <trkpt lat="48.78738" lon="2.08111">
        <ele>145</ele>
        <time>2021-05-15T18:53:03Z</time>
      </trkpt>
      <trkpt lat="48.78727" lon="2.08105">
        <ele>146</ele>
        <time>2021-05-15T18:53:19Z</time>
      </trkpt>
      <trkpt lat="48.787" lon="2.08107">
        <ele>147</ele>
        <time>2021-05-15T18:53:55Z</time>
      </trkpt>
      <trkpt lat="48.78668" lon="2.08115">
        <ele>147</ele>
        <time>2021-05-15T18:54:38Z</time>
      </trkpt>
      <trkpt lat="48.78636" lon="2.08124">
        <ele>146</ele>
        <time>2021-05-15T18:55:21Z</time>
      </trkpt>
      <trkpt lat="48.78606" lon="2.08146">
        <ele>143</ele>
        <time>2021-05-15T18:56:06Z</time>
      </trkpt>
      <trkpt lat="48.78589" lon="2.08138">
        <ele>144</ele>
        <time>2021-05-15T18:56:30Z</time>
      </trkpt>
      <trkpt lat="48.78555" lon="2.08089">
        <ele>145</ele>
        <time>2021-05-15T18:57:32Z</time>
      </trkpt>
      <trkpt lat="48.78512" lon="2.08021">
        <ele>145</ele>
        <time>2021-05-15T18:58:55Z</time>
      </trkpt>
      <trkpt lat="48.78467" lon="2.07916">
        <ele>149</ele>
        <time>2021-05-15T19:00:45Z</time>
      </trkpt>
      <trkpt lat="48.78446" lon="2.07871">
        <ele>147</ele>
        <time>2021-05-15T19:01:34Z</time>
      </trkpt>
      <trkpt lat="48.7843" lon="2.07841">
        <ele>144</ele>
        <time>2021-05-15T19:02:08Z</time>
      </trkpt>
      <trkpt lat="48.78423" lon="2.07806">
        <ele>143</ele>
        <time>2021-05-15T19:02:40Z</time>
      </trkpt>
      <trkpt lat="48.78415" lon="2.07786">
        <ele>142</ele>
        <time>2021-05-15T19:03:00Z</time>
      </trkpt>
      <trkpt lat="48.7839" lon="2.07712">
        <ele>144</ele>
        <time>2021-05-15T19:04:14Z</time>
      </trkpt>
      <trkpt lat="48.7835" lon="2.07676">
        <ele>141</ele>
        <time>2021-05-15T19:05:16Z</time>
      </trkpt>
      <trkpt lat="48.78329" lon="2.07646">
        <ele>142</ele>
        <time>2021-05-15T19:05:54Z</time>
      </trkpt>
      <trkpt lat="48.78278" lon="2.07596">
        <ele>142</ele>
        <time>2021-05-15T19:07:15Z</time>
      </trkpt>
      <trkpt lat="48.78236" lon="2.07555">
        <ele>141</ele>
        <time>2021-05-15T19:08:22Z</time>
      </trkpt>
      <trkpt lat="48.78221" lon="2.07535">
        <ele>142</ele>
        <time>2021-05-15T19:08:48Z</time>
      </trkpt>
      <trkpt lat="48.78208" lon="2.07502">
        <ele>142</ele>
        <time>2021-05-15T19:09:22Z</time>
      </trkpt>
      <trkpt lat="48.78207" lon="2.07489">
        <ele>142</ele>
        <time>2021-05-15T19:09:34Z</time>
      </trkpt>
      <trkpt lat="48.78207" lon="2.07468">
        <ele>143</ele>
        <time>2021-05-15T19:09:52Z</time>
      </trkpt>
      <trkpt lat="48.78212" lon="2.07436">
        <ele>144</ele>
        <time>2021-05-15T19:10:21Z</time>
      </trkpt>
      <trkpt lat="48.78211" lon="2.07415">
        <ele>144</ele>
        <time>2021-05-15T19:10:40Z</time>
      </trkpt>
      <trkpt lat="48.78208" lon="2.07401">
        <ele>144</ele>
        <time>2021-05-15T19:10:53Z</time>
      </trkpt>
      <trkpt lat="48.78189" lon="2.07351">
        <ele>141</ele>
        <time>2021-05-15T19:11:43Z</time>
      </trkpt>
      <trkpt lat="48.78185" lon="2.07303">
        <ele>142</ele>
        <time>2021-05-15T19:12:26Z</time>
      </trkpt>
      <trkpt lat="48.78185" lon="2.07247">
        <ele>144</ele>
        <time>2021-05-15T19:13:15Z</time>
      </trkpt>
      <trkpt lat="48.78188" lon="2.07215">
        <ele>144</ele>
        <time>2021-05-15T19:13:44Z</time>
      </trkpt>
      <trkpt lat="48.78191" lon="2.07136">
        <ele>144</ele>
        <time>2021-05-15T19:14:53Z</time>
      </trkpt>
      <trkpt lat="48.78182" lon="2.07066">
        <ele>143</ele>
        <time>2021-05-15T19:15:56Z</time>
      </trkpt>
      <trkpt lat="48.78168" lon="2.07023">
        <ele>142</ele>
        <time>2021-05-15T19:16:38Z</time>
      </trkpt>
      <trkpt lat="48.78157" lon="2.06991">
        <ele>142</ele>
        <time>2021-05-15T19:17:10Z</time>
      </trkpt>
      <trkpt lat="48.78105" lon="2.06897">
        <ele>141</ele>
        <time>2021-05-15T19:18:58Z</time>
      </trkpt>
      <trkpt lat="48.78075" lon="2.06854">
        <ele>140</ele>
        <time>2021-05-15T19:19:53Z</time>
      </trkpt>
      <trkpt lat="48.78055" lon="2.0688">
        <ele>141</ele>
        <time>2021-05-15T19:20:28Z</time>
      </trkpt>
      <trkpt lat="48.78047" lon="2.069">
        <ele>142</ele>
        <time>2021-05-15T19:20:48Z</time>
      </trkpt>
      <trkpt lat="48.78046" lon="2.06909">
        <ele>143</ele>
        <time>2021-05-15T19:20:56Z</time>
      </trkpt>
      <trkpt lat="48.78047" lon="2.06918">
        <ele>143</ele>
        <time>2021-05-15T19:21:04Z</time>
      </trkpt>
      <trkpt lat="48.78071" lon="2.06938">
        <ele>140</ele>
        <time>2021-05-15T19:21:41Z</time>
      </trkpt>
      <trkpt lat="48.78095" lon="2.06978">
        <ele>139</ele>
        <time>2021-05-15T19:22:29Z</time>
      </trkpt>
      <trkpt lat="48.78115" lon="2.07015">
        <ele>140</ele>
        <time>2021-05-15T19:23:11Z</time>
      </trkpt>
      <trkpt lat="48.78123" lon="2.07046">
        <ele>140</ele>
        <time>2021-05-15T19:23:40Z</time>
      </trkpt>
      <trkpt lat="48.78126" lon="2.07086">
        <ele>140</ele>
        <time>2021-05-15T19:24:15Z</time>
      </trkpt>
      <trkpt lat="48.78124" lon="2.0712">
        <ele>140</ele>
        <time>2021-05-15T19:24:45Z</time>
      </trkpt>
      <trkpt lat="48.78116" lon="2.07185">
        <ele>141</ele>
        <time>2021-05-15T19:25:44Z</time>
      </trkpt>
      <trkpt lat="48.78112" lon="2.07267">
        <ele>143</ele>
        <time>2021-05-15T19:26:56Z</time>
      </trkpt>
      <trkpt lat="48.78113" lon="2.07348">
        <ele>141</ele>
        <time>2021-05-15T19:28:07Z</time>
      </trkpt>
      <trkpt lat="48.78116" lon="2.07402">
        <ele>143</ele>
        <time>2021-05-15T19:28:55Z</time>
      </trkpt>
      <trkpt lat="48.78138" lon="2.07563">
        <ele>147</ele>
        <time>2021-05-15T19:31:19Z</time>
      </trkpt>
      <trkpt lat="48.78154" lon="2.07623">
        <ele>148</ele>
        <time>2021-05-15T19:32:16Z</time>
      </trkpt>
      <trkpt lat="48.78225" lon="2.07723">
        <ele>147</ele>
        <time>2021-05-15T19:34:25Z</time>
      </trkpt>
      <trkpt lat="48.78271" lon="2.07744">
        <ele>144</ele>
        <time>2021-05-15T19:35:30Z</time>
      </trkpt>
      <trkpt lat="48.78285" lon="2.07761">
        <ele>144</ele>
        <time>2021-05-15T19:35:53Z</time>
      </trkpt>
      <trkpt lat="48.78346" lon="2.07895">
        <ele>144</ele>
        <time>2021-05-15T19:38:17Z</time>
      </trkpt>
      <trkpt lat="48.78359" lon="2.07943">
        <ele>147</ele>
        <time>2021-05-15T19:39:02Z</time>
      </trkpt>
      <trkpt lat="48.78372" lon="2.08033">
        <ele>147</ele>
        <time>2021-05-15T19:40:23Z</time>
      </trkpt>
      <trkpt lat="48.78376" lon="2.08054">
        <ele>146</ele>
        <time>2021-05-15T19:40:43Z</time>
      </trkpt>
      <trkpt lat="48.7835" lon="2.08168">
        <ele>142</ele>
        <time>2021-05-15T19:42:29Z</time>
      </trkpt>
      <trkpt lat="48.78337" lon="2.08187">
        <ele>142</ele>
        <time>2021-05-15T19:42:53Z</time>
      </trkpt>
      <trkpt lat="48.7831" lon="2.08242">
        <ele>141</ele>
        <time>2021-05-15T19:43:53Z</time>
      </trkpt>
      <trkpt lat="48.78277" lon="2.083">
        <ele>140</ele>
        <time>2021-05-15T19:45:00Z</time>
      </trkpt>
      <trkpt lat="48.78245" lon="2.08366">
        <ele>138</ele>
        <time>2021-05-15T19:46:12Z</time>
      </trkpt>
      <trkpt lat="48.7832" lon="2.08473">
        <ele>132</ele>
        <time>2021-05-15T19:48:30Z</time>
      </trkpt>
      <trkpt lat="48.7833" lon="2.08476">
        <ele>132</ele>
        <time>2021-05-15T19:48:43Z</time>
      </trkpt>
      <trkpt lat="48.78351" lon="2.08503">
        <ele>137</ele>
        <time>2021-05-15T19:49:20Z</time>
      </trkpt>
      <trkpt lat="48.78322" lon="2.08566">
        <ele>139</ele>
        <time>2021-05-15T19:50:28Z</time>
      </trkpt>
      <trkpt lat="48.7827" lon="2.08605">
        <ele>135</ele>
        <time>2021-05-15T19:51:45Z</time>
      </trkpt>
      <trkpt lat="48.78259" lon="2.08623">
        <ele>134</ele>
        <time>2021-05-15T19:52:07Z</time>
      </trkpt>
      <trkpt lat="48.78258" lon="2.08679">
        <ele>136</ele>
        <time>2021-05-15T19:52:56Z</time>
      </trkpt>
      <trkpt lat="48.78256" lon="2.08696">
        <ele>137</ele>
        <time>2021-05-15T19:53:11Z</time>
      </trkpt>
      <trkpt lat="48.78239" lon="2.08738">
        <ele>135</ele>
        <time>2021-05-15T19:53:55Z</time>
      </trkpt>
      <trkpt lat="48.78236" lon="2.08782">
        <ele>136</ele>
        <time>2021-05-15T19:54:33Z</time>
      </trkpt>
      <trkpt lat="48.78237" lon="2.08839">
        <ele>138</ele>
        <time>2021-05-15T19:55:24Z</time>
      </trkpt>
      <trkpt lat="48.78227" lon="2.08916">
        <ele>137</ele>
        <time>2021-05-15T19:56:33Z</time>
      </trkpt>
      <trkpt lat="48.78225" lon="2.08965">
        <ele>140</ele>
        <time>2021-05-15T19:57:16Z</time>
      </trkpt>
      <trkpt lat="48.78218" lon="2.08992">
        <ele>141</ele>
        <time>2021-05-15T19:57:41Z</time>
      </trkpt>
      <trkpt lat="48.78136" lon="2.0892">
        <ele>127</ele>
        <time>2021-05-15T19:59:48Z</time>
      </trkpt>
      <trkpt lat="48.78112" lon="2.08936">
        <ele>128</ele>
        <time>2021-05-15T20:00:23Z</time>
      </trkpt>
      <trkpt lat="48.78076" lon="2.08967">
        <ele>129</ele>
        <time>2021-05-15T20:01:18Z</time>
      </trkpt>
      <trkpt lat="48.78028" lon="2.09031">
        <ele>132</ele>
        <time>2021-05-15T20:02:43Z</time>
      </trkpt>
      <trkpt lat="48.77992" lon="2.09088">
        <ele>133</ele>
        <time>2021-05-15T20:03:53Z</time>
      </trkpt>
      <trkpt lat="48.77956" lon="2.09184">
        <ele>133</ele>
        <time>2021-05-15T20:05:30Z</time>
      </trkpt>
      <trkpt lat="48.77943" lon="2.09205">
        <ele>133</ele>
        <time>2021-05-15T20:05:55Z</time>
      </trkpt>
      <trkpt lat="48.77932" lon="2.09215">
        <ele>134</ele>
        <time>2021-05-15T20:06:12Z</time>
      </trkpt>
      <trkpt lat="48.77923" lon="2.09213">
        <ele>134</ele>
        <time>2021-05-15T20:06:24Z</time>
      </trkpt>
      <trkpt lat="48.77916" lon="2.09221">
        <ele>135</ele>
        <time>2021-05-15T20:06:36Z</time>
      </trkpt>
      <trkpt lat="48.77908" lon="2.09234">
        <ele>136</ele>
        <time>2021-05-15T20:06:52Z</time>
      </trkpt>
      <trkpt lat="48.77907" lon="2.0932">
        <ele>135</ele>
        <time>2021-05-15T20:08:07Z</time>
      </trkpt>
      <trkpt lat="48.77914" lon="2.09364">
        <ele>136</ele>
        <time>2021-05-15T20:08:47Z</time>
      </trkpt>
      <trkpt lat="48.77928" lon="2.09412">
        <ele>137</ele>
        <time>2021-05-15T20:09:33Z</time>
      </trkpt>
      <trkpt lat="48.77939" lon="2.09485">
        <ele>133</ele>
        <time>2021-05-15T20:10:39Z</time>
      </trkpt>
      <trkpt lat="48.77952" lon="2.09529">
        <ele>130</ele>
        <time>2021-05-15T20:11:21Z</time>
      </trkpt>
      <trkpt lat="48.77939" lon="2.09539">
        <ele>130</ele>
        <time>2021-05-15T20:11:41Z</time>
      </trkpt>
      <trkpt lat="48.77931" lon="2.09534">
        <ele>131</ele>
        <time>2021-05-15T20:11:52Z</time>
      </trkpt>
      <trkpt lat="48.77926" lon="2.09541">
        <ele>131</ele>
        <time>2021-05-15T20:12:02Z</time>
      </trkpt>
      <trkpt lat="48.77925" lon="2.09553">
        <ele>130</ele>
        <time>2021-05-15T20:12:12Z</time>
      </trkpt>
      <trkpt lat="48.77899" lon="2.09578">
        <ele>128</ele>
        <time>2021-05-15T20:12:53Z</time>
      </trkpt>
      <trkpt lat="48.77889" lon="2.09559">
        <ele>130</ele>
        <time>2021-05-15T20:13:15Z</time>
      </trkpt>
      <trkpt lat="48.77828" lon="2.09547">
        <ele>134</ele>
        <time>2021-05-15T20:14:37Z</time>
      </trkpt>
      <trkpt lat="48.77816" lon="2.09554">
        <ele>132</ele>
        <time>2021-05-15T20:14:54Z</time>
      </trkpt>
      <trkpt lat="48.77807" lon="2.09565">
        <ele>131</ele>
        <time>2021-05-15T20:15:09Z</time>
      </trkpt>
      <trkpt lat="48.77789" lon="2.09625">
        <ele>125</ele>
        <time>2021-05-15T20:16:07Z</time>
      </trkpt>
      <trkpt lat="48.77784" lon="2.0968">
        <ele>122</ele>
        <time>2021-05-15T20:16:56Z</time>
      </trkpt>
      <trkpt lat="48.77671" lon="2.09752">
        <ele>130</ele>
        <time>2021-05-15T20:19:40Z</time>
      </trkpt>
      <trkpt lat="48.77638" lon="2.09808">
        <ele>127</ele>
        <time>2021-05-15T20:20:46Z</time>
      </trkpt>
      <trkpt lat="48.77561" lon="2.0998">
        <ele>122</ele>
        <time>2021-05-15T20:23:49Z</time>
      </trkpt>
      <trkpt lat="48.77542" lon="2.10013">
        <ele>122</ele>
        <time>2021-05-15T20:24:27Z</time>
      </trkpt>
      <trkpt lat="48.77518" lon="2.10097">
        <ele>121</ele>
        <time>2021-05-15T20:25:48Z</time>
      </trkpt>
      <trkpt lat="48.77507" lon="2.1022">
        <ele>121</ele>
        <time>2021-05-15T20:27:37Z</time>
      </trkpt>
      <trkpt lat="48.77498" lon="2.10292">
        <ele>121</ele>
        <time>2021-05-15T20:28:41Z</time>
      </trkpt>
      <trkpt lat="48.77424" lon="2.10564">
        <ele>119</ele>
        <time>2021-05-15T20:33:00Z</time>
      </trkpt>
      <trkpt lat="48.77406" lon="2.10606">
        <ele>119</ele>
        <time>2021-05-15T20:33:44Z</time>
      </trkpt>
      <trkpt lat="48.77379" lon="2.10689">
        <ele>120</ele>
        <time>2021-05-15T20:35:05Z</time>
      </trkpt>
      <trkpt lat="48.77374" lon="2.10765">
        <ele>122</ele>
        <time>2021-05-15T20:36:13Z</time>
      </trkpt>
      <trkpt lat="48.77412" lon="2.10984">
        <ele>121</ele>
        <time>2021-05-15T20:39:32Z</time>
      </trkpt>
      <trkpt lat="48.7746" lon="2.11061">
        <ele>124</ele>
        <time>2021-05-15T20:41:05Z</time>
      </trkpt>
      <trkpt lat="48.77503" lon="2.11053">
        <ele>117</ele>
        <time>2021-05-15T20:42:03Z</time>
      </trkpt>
      <trkpt lat="48.77533" lon="2.11062">
        <ele>116</ele>
        <time>2021-05-15T20:42:44Z</time>
      </trkpt>
      <trkpt lat="48.7756" lon="2.11084">
        <ele>114</ele>
        <time>2021-05-15T20:43:25Z</time>
      </trkpt>
      <trkpt lat="48.77575" lon="2.11108">
        <ele>113</ele>
        <time>2021-05-15T20:43:54Z</time>
      </trkpt>
      <trkpt lat="48.77585" lon="2.11137">
        <ele>113</ele>
        <time>2021-05-15T20:44:22Z</time>
      </trkpt>
      <trkpt lat="48.77593" lon="2.11184">
        <ele>113</ele>
        <time>2021-05-15T20:45:05Z</time>
      </trkpt>
      <trkpt lat="48.77602" lon="2.11486">
        <ele>116</ele>
        <time>2021-05-15T20:49:31Z</time>
      </trkpt>
      <trkpt lat="48.77599" lon="2.11567">
        <ele>115</ele>
        <time>2021-05-15T20:50:42Z</time>
      </trkpt>
      <trkpt lat="48.77606" lon="2.11623">
        <ele>114</ele>
        <time>2021-05-15T20:51:32Z</time>
      </trkpt>
      <trkpt lat="48.77622" lon="2.1171">
        <ele>114</ele>
        <time>2021-05-15T20:52:52Z</time>
      </trkpt>
      <trkpt lat="48.77624" lon="2.1176">
        <ele>115</ele>
        <time>2021-05-15T20:53:36Z</time>
      </trkpt>
      <trkpt lat="48.77592" lon="2.11809">
        <ele>120</ele>
        <time>2021-05-15T20:54:37Z</time>
      </trkpt>
      <trkpt lat="48.77532" lon="2.11824">
        <ele>130</ele>
        <time>2021-05-15T20:55:58Z</time>
      </trkpt>
      <trkpt lat="48.77504" lon="2.11858">
        <ele>131</ele>
        <time>2021-05-15T20:56:46Z</time>
      </trkpt>
      <trkpt lat="48.77497" lon="2.11904">
        <ele>127</ele>
        <time>2021-05-15T20:57:27Z</time>
      </trkpt>
      <trkpt lat="48.77289" lon="2.11828">
        <ele>155</ele>
        <time>2021-05-15T21:02:13Z</time>
      </trkpt>
      <trkpt lat="48.77191" lon="2.12174">
        <ele>151</ele>
        <time>2021-05-15T21:07:44Z</time>
      </trkpt>
      <trkpt lat="48.77176" lon="2.12188">
        <ele>151</ele>
        <time>2021-05-15T21:08:07Z</time>
      </trkpt>
      <trkpt lat="48.76795" lon="2.11887">
        <ele>158</ele>
        <time>2021-05-15T21:17:41Z</time>
      </trkpt>
      <trkpt lat="48.76868" lon="2.11544">
        <ele>158</ele>
        <time>2021-05-15T21:22:58Z</time>
      </trkpt>
      <trkpt lat="48.76736" lon="2.11475">
        <ele>161</ele>
        <time>2021-05-15T21:26:04Z</time>
      </trkpt>
    </trkseg>
  </trk>
</gpx>